Time;durP1;ratioP1;P1;durP2;ratioP2;P2;SDS_P1;SDS_P2;PMS_P1;PMS_P2;Temp;Humidity;BMP_temperature;BMP_pressure;BME280_temperature;BME280_humidity;BME280_pressure;Samples;Min_cycle;Max_cycle;Signal;HPM_P1;HPM_P2
2023/10/01 00:00:12;;;;;;;1.90;1.00;;;15.00;1.00;;;;;;5134902;27;20427;-55
2023/10/01 00:02:41;;;;;;;3.25;1.00;;;15.00;1.00;;;;;;5135439;27;20855;-56
2023/10/01 00:05:10;;;;;;;3.22;0.90;;;14.90;1.00;;;;;;5134991;27;20439;-56
2023/10/01 00:07:38;;;;;;;1.85;0.90;;;14.90;1.00;;;;;;5136238;27;20410;-55
2023/10/01 00:10:10;;;;;;;2.93;1.20;;;14.90;1.00;;;;;;5136186;27;20428;-55
2023/10/01 00:12:38;;;;;;;4.17;1.10;;;14.90;1.00;;;;;;5134827;27;20853;-54
2023/10/01 00:15:10;;;;;;;2.40;1.10;;;14.80;1.00;;;;;;5133713;27;20424;-56
2023/10/01 00:17:37;;;;;;;4.10;1.00;;;14.80;1.00;;;;;;5133689;27;20691;-56
2023/10/01 00:20:15;;;;;;;4.10;1.10;;;14.90;1.00;;;;;;5135106;27;20414;-55
2023/10/01 00:22:43;;;;;;;3.25;1.00;;;14.90;1.00;;;;;;5134230;27;20915;-56
2023/10/01 00:25:11;;;;;;;4.43;1.00;;;14.90;1.00;;;;;;5134669;27;20486;-55
2023/10/01 00:27:38;;;;;;;3.20;1.00;;;14.80;1.00;;;;;;5134511;27;20414;-55
2023/10/01 00:30:09;;;;;;;2.90;1.00;;;14.80;1.00;;;;;;5136021;27;20441;-53
2023/10/01 00:32:36;;;;;;;2.25;1.00;;;14.80;1.00;;;;;;5134625;27;20422;-54
2023/10/01 00:35:04;;;;;;;2.97;1.00;;;14.80;1.00;;;;;;5132951;27;20407;-54
2023/10/01 00:37:33;;;;;;;1.90;0.90;;;14.70;1.00;;;;;;5132529;27;20632;-56
2023/10/01 00:40:00;;;;;;;2.75;0.98;;;14.80;1.00;;;;;;5131981;27;20438;-55
2023/10/01 00:42:28;;;;;;;2.20;0.90;;;14.80;1.00;;;;;;5133231;27;20505;-53
2023/10/01 00:44:57;;;;;;;2.30;0.90;;;14.70;1.00;;;;;;5133439;27;20833;-55
2023/10/01 00:47:27;;;;;;;2.47;1.00;;;14.70;1.00;;;;;;5133217;27;20422;-55
2023/10/01 00:49:57;;;;;;;2.55;1.10;;;14.70;1.00;;;;;;5132762;27;20402;-56
2023/10/01 00:52:24;;;;;;;2.20;1.10;;;14.70;1.00;;;;;;5131373;27;20407;-55
2023/10/01 00:54:54;;;;;;;4.00;1.00;;;14.70;1.00;;;;;;5132039;27;20414;-56
2023/10/01 00:57:22;;;;;;;5.00;1.00;;;14.70;1.00;;;;;;5130417;27;20426;-57
2023/10/01 00:59:50;;;;;;;4.22;1.10;;;14.70;1.00;;;;;;5132596;27;20495;-55
2023/10/01 01:02:18;;;;;;;2.70;1.10;;;14.70;1.00;;;;;;5132352;27;20764;-51
2023/10/01 01:05:05;;;;;;;2.70;1.20;;;14.60;1.00;;;;;;5133183;27;20411;-51
2023/10/01 01:07:32;;;;;;;2.42;1.20;;;14.60;1.00;;;;;;5133523;27;20425;-55
2023/10/01 01:10:06;;;;;;;2.47;1.30;;;14.60;1.00;;;;;;5135070;27;20430;-54
2023/10/01 01:12:33;;;;;;;3.60;1.40;;;14.50;1.00;;;;;;5133811;27;20746;-56
2023/10/01 01:15:02;;;;;;;3.63;1.20;;;14.50;1.00;;;;;;5134282;27;20471;-54
2023/10/01 01:17:30;;;;;;;3.63;1.30;;;14.40;1.00;;;;;;5135163;27;20458;-55
2023/10/01 01:19:58;;;;;;;3.08;1.40;;;14.40;1.00;;;;;;5135864;27;20421;-52
2023/10/01 01:22:29;;;;;;;4.50;1.30;;;14.30;1.00;;;;;;5135454;27;20714;-57
2023/10/01 01:25:00;;;;;;;2.67;1.23;;;14.30;1.00;;;;;;5135314;27;20431;-55
2023/10/01 01:27:31;;;;;;;3.28;1.40;;;14.40;1.00;;;;;;5134638;27;20449;-58
2023/10/01 01:29:58;;;;;;;4.03;1.30;;;14.40;1.00;;;;;;5134104;27;20419;-55
2023/10/01 01:32:25;;;;;;;2.35;1.02;;;14.40;1.00;;;;;;5135122;27;20429;-56
2023/10/01 01:34:54;;;;;;;2.25;1.00;;;14.40;1.00;;;;;;5135716;27;20411;-56
2023/10/01 01:37:30;;;;;;;2.97;1.20;;;14.40;1.00;;;;;;5135815;27;20430;-56
2023/10/01 01:39:59;;;;;;;4.13;1.30;;;14.30;1.00;;;;;;5136062;28;20422;-55
2023/10/01 01:42:28;;;;;;;2.88;1.10;;;14.20;1.00;;;;;;5136100;28;20855;-55
2023/10/01 01:47:36;;;;;;;2.90;1.10;;;14.30;1.00;;;;;;5134548;28;20402;-54
2023/10/01 01:50:17;;;;;;;5.03;1.20;;;14.20;1.00;;;;;;5134444;28;20411;-54
2023/10/01 01:52:47;;;;;;;3.60;1.10;;;14.30;1.00;;;;;;5132954;28;20506;-55
2023/10/01 01:55:26;;;;;;;5.50;1.20;;;14.30;1.00;;;;;;5135892;28;20445;-55
2023/10/01 01:58:06;;;;;;;2.10;1.00;;;14.30;1.00;;;;;;5135789;28;20462;-55
2023/10/01 02:00:37;;;;;;;3.67;1.10;;;14.30;1.00;;;;;;5135858;28;20479;-57
2023/10/01 02:03:10;;;;;;;2.40;1.10;;;14.40;1.00;;;;;;5134245;28;20422;-54
2023/10/01 02:05:41;;;;;;;2.00;1.10;;;14.40;1.00;;;;;;5133523;28;20479;-57
2023/10/01 02:08:10;;;;;;;2.47;1.10;;;14.40;1.00;;;;;;5132619;28;20776;-57
2023/10/01 02:10:45;;;;;;;2.88;1.10;;;14.30;1.00;;;;;;5134007;28;20418;-51
2023/10/01 02:13:16;;;;;;;2.70;1.02;;;14.20;1.00;;;;;;5133812;28;20418;-54
2023/10/01 02:15:45;;;;;;;4.28;1.08;;;14.20;1.00;;;;;;5133521;28;20798;-53
2023/10/01 02:18:16;;;;;;;5.35;1.38;;;14.20;1.00;;;;;;5135932;27;20427;-54
2023/10/01 02:20:48;;;;;;;2.30;1.00;;;14.20;1.00;;;;;;5138167;27;20446;-56
2023/10/01 02:23:17;;;;;;;3.60;1.10;;;14.20;1.00;;;;;;5137856;27;21041;-56
2023/10/01 02:25:46;;;;;;;2.50;1.10;;;14.20;1.00;;;;;;5137289;27;20905;-55
2023/10/01 02:28:15;;;;;;;4.00;1.30;;;14.10;1.00;;;;;;5136891;27;20422;-56
2023/10/01 02:30:44;;;;;;;4.50;1.20;;;14.10;1.00;;;;;;5137092;27;20478;-53
2023/10/01 02:33:18;;;;;;;3.00;1.10;;;14.10;1.00;;;;;;5137039;27;20760;-53
2023/10/01 02:35:49;;;;;;;2.85;1.02;;;14.10;1.00;;;;;;5138111;27;20521;-56
2023/10/01 02:41:08;;;;;;;4.00;1.10;;;14.00;1.00;;;;;;5137133;27;20841;-58
2023/10/01 02:43:35;;;;;;;2.65;1.10;;;14.10;1.00;;;;;;5137383;27;20419;-55
2023/10/01 02:46:10;;;;;;;3.60;1.10;;;14.00;1.00;;;;;;5138396;27;20831;-53
2023/10/01 02:48:40;;;;;;;3.88;1.20;;;13.90;1.00;;;;;;5138972;27;20478;-56
2023/10/01 02:51:16;;;;;;;3.30;1.10;;;13.80;1.00;;;;;;5137169;27;20485;-54
2023/10/01 02:53:43;;;;;;;3.70;1.20;;;13.80;1.00;;;;;;5138326;27;20483;-56
2023/10/01 02:56:19;;;;;;;3.60;1.10;;;13.80;1.00;;;;;;5137000;27;20425;-56
2023/10/01 02:58:49;;;;;;;4.97;1.10;;;13.80;1.00;;;;;;5138692;27;20426;-55
2023/10/01 03:01:17;;;;;;;1.55;0.90;;;13.80;1.00;;;;;;5139010;27;20861;-56
2023/10/01 03:03:43;;;;;;;4.50;1.40;;;13.70;1.00;;;;;;5138704;27;20510;-55
2023/10/01 03:06:10;;;;;;;2.97;1.05;;;13.70;1.00;;;;;;5138736;27;20422;-56
2023/10/01 03:11:25;;;;;;;5.00;1.10;;;13.80;1.00;;;;;;5138287;27;20852;-53
2023/10/01 03:13:54;;;;;;;5.70;1.30;;;13.80;1.00;;;;;;5138273;27;20472;-56
2023/10/01 03:19:18;;;;;;;3.50;1.30;;;13.70;1.00;;;;;;5138412;27;20401;-56
2023/10/01 03:24:39;;;;;;;2.85;1.17;;;13.70;1.00;;;;;;5117437;27;20407;-57
2023/10/01 03:27:19;;;;;;;3.73;1.10;;;13.70;1.00;;;;;;5138223;27;20877;-56
2023/10/01 03:29:48;;;;;;;4.60;1.00;;;13.70;1.00;;;;;;5137332;27;20495;-55
2023/10/01 03:32:28;;;;;;;4.40;1.20;;;13.70;1.00;;;;;;5137681;27;20442;-56
2023/10/01 03:34:56;;;;;;;3.47;1.00;;;13.60;1.00;;;;;;5138034;27;20691;-56
2023/10/01 03:37:27;;;;;;;2.85;1.10;;;13.60;1.00;;;;;;5136979;27;20427;-55
2023/10/01 03:40:05;;;;;;;2.80;1.20;;;13.60;1.00;;;;;;5137042;27;20426;-56
2023/10/01 03:42:37;;;;;;;3.53;1.17;;;13.70;1.00;;;;;;5137123;27;20785;-53
2023/10/01 03:45:37;;;;;;;3.10;1.30;;;13.80;1.00;;;;;;5137694;27;20422;-54
2023/10/01 03:48:08;;;;;;;2.40;1.10;;;13.70;1.00;;;;;;5137310;27;20699;-55
2023/10/01 03:50:45;;;;;;;3.53;1.20;;;13.60;1.00;;;;;;5137402;27;20422;-56
2023/10/01 03:53:17;;;;;;;3.80;1.30;;;13.60;1.00;;;;;;5136927;27;20826;-56
2023/10/01 03:55:46;;;;;;;3.15;1.20;;;13.50;1.00;;;;;;5137554;27;20509;-55
2023/10/01 03:58:26;;;;;;;4.03;1.40;;;13.40;1.00;;;;;;5137914;27;20486;-56
2023/10/01 04:01:03;;;;;;;3.25;1.20;;;13.40;1.00;;;;;;5137914;27;20443;-56
2023/10/01 04:03:38;;;;;;;3.30;1.10;;;13.30;1.00;;;;;;5137456;27;20422;-55
2023/10/01 04:06:06;;;;;;;4.10;1.20;;;13.30;1.00;;;;;;5136715;27;20432;-54
2023/10/01 04:08:39;;;;;;;3.38;1.20;;;13.20;1.00;;;;;;5137854;27;20450;-56
2023/10/01 04:11:11;;;;;;;2.70;1.20;;;13.20;1.00;;;;;;5136119;27;20414;-53
2023/10/01 04:13:41;;;;;;;4.97;1.10;;;13.10;1.00;;;;;;5137067;27;20533;-56
2023/10/01 04:16:09;;;;;;;4.75;1.40;;;13.20;4.10;;;;;;5137388;27;20705;-54
2023/10/01 04:18:37;;;;;;;4.82;1.20;;;13.10;1.00;;;;;;5136183;27;20433;-56
2023/10/01 04:21:25;;;;;;;3.30;1.00;;;13.20;4.10;;;;;;5136078;27;20808;-55
2023/10/01 04:23:51;;;;;;;3.08;1.10;;;13.20;1.90;;;;;;5135715;27;20426;-56
2023/10/01 04:26:18;;;;;;;4.65;1.23;;;13.20;1.00;;;;;;5135943;27;20430;-53
2023/10/01 04:28:50;;;;;;;3.90;1.20;;;13.20;1.00;;;;;;5136348;27;20407;-56
2023/10/01 04:31:22;;;;;;;4.45;1.30;;;13.30;1.00;;;;;;5136577;27;20462;-56
2023/10/01 04:33:50;;;;;;;4.25;1.10;;;13.20;1.00;;;;;;5136619;27;20431;-55
2023/10/01 04:36:19;;;;;;;2.58;1.10;;;13.30;1.00;;;;;;5137174;27;20733;-54
2023/10/01 04:38:48;;;;;;;3.50;1.10;;;13.20;1.00;;;;;;5136585;27;20434;-54
2023/10/01 04:41:16;;;;;;;4.25;1.23;;;13.30;1.00;;;;;;5136136;27;20410;-55
2023/10/01 04:43:55;;;;;;;3.90;1.30;;;13.40;1.00;;;;;;5136566;27;20410;-54
2023/10/01 04:46:27;;;;;;;2.70;1.02;;;13.40;1.00;;;;;;5136309;27;20471;-56
2023/10/01 04:48:55;;;;;;;3.58;1.10;;;13.40;1.00;;;;;;5135393;27;20742;-55
2023/10/01 04:51:23;;;;;;;3.00;1.10;;;13.40;1.00;;;;;;5136305;27;20521;-56
2023/10/01 04:53:51;;;;;;;2.05;1.02;;;13.40;1.00;;;;;;5135939;27;20432;-55
2023/10/01 04:56:21;;;;;;;3.40;1.20;;;13.50;1.00;;;;;;5136190;27;20495;-55
2023/10/01 04:58:52;;;;;;;3.28;1.30;;;13.40;1.00;;;;;;5136619;27;20426;-56
2023/10/01 05:01:23;;;;;;;2.63;1.10;;;13.30;1.00;;;;;;5135221;27;20433;-55
2023/10/01 05:03:54;;;;;;;4.25;1.15;;;13.30;1.00;;;;;;5135444;27;20422;-56
2023/10/01 05:06:22;;;;;;;2.88;1.02;;;13.30;1.00;;;;;;5135296;27;20461;-56
2023/10/01 05:08:53;;;;;;;4.00;1.20;;;13.20;1.00;;;;;;5135701;27;20734;-54
2023/10/01 05:11:22;;;;;;;4.65;1.00;;;13.10;1.00;;;;;;5136010;27;20429;-54
2023/10/01 05:13:51;;;;;;;3.58;1.00;;;13.20;1.00;;;;;;5135612;27;20850;-54
2023/10/01 05:16:26;;;;;;;5.75;1.50;;;13.20;1.00;;;;;;5135579;27;20430;-55
2023/10/01 05:19:14;;;;;;;3.45;1.00;;;13.20;1.00;;;;;;5135823;27;20479;-54
2023/10/01 05:21:47;;;;;;;3.20;1.40;;;13.20;1.00;;;;;;5135592;27;20430;-55
2023/10/01 05:24:31;;;;;;;3.40;1.10;;;13.20;1.00;;;;;;5136204;27;20422;-54
2023/10/01 05:27:00;;;;;;;2.55;1.20;;;13.20;1.00;;;;;;5136082;27;20422;-53
2023/10/01 05:29:28;;;;;;;2.50;1.10;;;13.00;1.00;;;;;;5135065;27;20829;-53
2023/10/01 05:31:55;;;;;;;4.35;1.20;;;12.90;1.00;;;;;;5135346;27;20414;-56
2023/10/01 05:34:25;;;;;;;3.50;1.20;;;12.90;14.30;;;;;;5135216;27;20475;-56
2023/10/01 05:37:08;;;;;;;2.30;1.40;;;13.00;7.50;;;;;;5135493;27;20441;-53
2023/10/01 05:39:55;;;;;;;4.10;1.30;;;13.00;6.00;;;;;;5135015;27;20465;-55
2023/10/01 05:42:22;;;;;;;3.90;1.10;;;13.00;2.10;;;;;;5135999;28;20429;-52
2023/10/01 05:44:50;;;;;;;3.50;1.17;;;13.10;1.00;;;;;;5135748;28;20471;-53
2023/10/01 05:47:17;;;;;;;4.40;1.30;;;13.10;1.00;;;;;;5135343;28;20478;-53
2023/10/01 05:49:49;;;;;;;3.13;1.10;;;13.10;1.00;;;;;;5135740;27;20683;-53
2023/10/01 05:52:18;;;;;;;2.67;1.08;;;13.20;1.00;;;;;;5136568;27;20422;-55
2023/10/01 05:54:52;;;;;;;2.93;1.20;;;13.00;1.00;;;;;;5140191;27;20431;-56
2023/10/01 05:57:22;;;;;;;4.95;1.10;;;12.90;8.30;;;;;;5139714;27;20428;-55
2023/10/01 05:59:56;;;;;;;2.80;1.10;;;12.80;16.50;;;;;;5139850;27;20430;-52
2023/10/01 06:02:41;;;;;;;4.43;1.10;;;12.90;21.10;;;;;;5140075;27;20422;-53
2023/10/01 06:05:25;;;;;;;3.10;1.20;;;13.10;9.70;;;;;;5139377;27;20415;-55
2023/10/01 06:07:54;;;;;;;4.57;1.10;;;13.20;1.00;;;;;;5139753;27;20929;-54
2023/10/01 06:10:26;;;;;;;4.35;1.05;;;13.40;1.00;;;;;;5138938;27;20479;-56
2023/10/01 06:12:56;;;;;;;3.45;1.00;;;13.40;1.00;;;;;;5138752;27;20414;-53
2023/10/01 06:15:29;;;;;;;4.15;1.10;;;13.40;1.00;;;;;;5138774;27;20449;-55
2023/10/01 06:18:00;;;;;;;3.33;1.10;;;13.40;1.00;;;;;;5138465;27;20826;-53
2023/10/01 06:20:30;;;;;;;5.07;1.63;;;13.30;1.00;;;;;;5139302;27;20422;-54
2023/10/01 06:22:59;;;;;;;3.95;1.60;;;13.20;1.00;;;;;;5137649;27;20506;-54
2023/10/01 06:25:40;;;;;;;3.42;1.55;;;13.20;1.00;;;;;;5138247;27;20402;-55
2023/10/01 06:28:14;;;;;;;4.60;1.45;;;13.30;1.00;;;;;;5139844;27;20422;-54
2023/10/01 06:30:43;;;;;;;4.38;1.20;;;13.50;1.00;;;;;;5139591;27;20465;-55
2023/10/01 06:33:24;;;;;;;2.58;1.15;;;13.50;1.00;;;;;;5138965;27;20445;-54
2023/10/01 06:36:15;;;;;;;2.80;1.27;;;13.60;1.00;;;;;;5138049;27;20442;-57
2023/10/01 06:38:44;;;;;;;3.55;1.20;;;13.70;1.00;;;;;;5137420;27;20438;-54
2023/10/01 06:41:16;;;;;;;2.63;1.20;;;13.70;1.00;;;;;;5138384;27;20407;-55
2023/10/01 06:43:54;;;;;;;2.58;1.13;;;13.60;1.00;;;;;;5138904;27;20421;-56
2023/10/01 06:46:23;;;;;;;4.40;1.10;;;13.60;1.00;;;;;;5138287;27;20884;-56
2023/10/01 06:48:52;;;;;;;3.10;1.27;;;13.60;1.00;;;;;;5137992;27;20422;-55
2023/10/01 06:51:21;;;;;;;4.00;1.20;;;13.70;1.00;;;;;;5138606;27;20424;-55
2023/10/01 06:53:53;;;;;;;4.80;1.40;;;13.80;1.00;;;;;;5138908;27;20428;-56
2023/10/01 06:56:21;;;;;;;4.25;1.10;;;13.90;1.00;;;;;;5138557;27;20430;-55
2023/10/01 07:01:42;;;;;;;5.28;1.20;;;13.90;1.00;;;;;;5137553;27;20853;-56
2023/10/01 07:04:11;;;;;;;3.90;1.10;;;13.80;1.00;;;;;;5136644;27;20422;-54
2023/10/01 07:06:40;;;;;;;3.80;1.13;;;13.70;1.00;;;;;;5137312;27;20525;-54
2023/10/01 07:09:24;;;;;;;4.53;1.30;;;13.70;1.00;;;;;;5138928;27;20898;-57
2023/10/01 07:11:52;;;;;;;2.83;1.40;;;13.80;1.00;;;;;;5138204;27;20829;-57
2023/10/01 07:14:30;;;;;;;3.83;1.10;;;13.80;1.00;;;;;;5136657;27;20422;-57
2023/10/01 07:17:00;;;;;;;3.58;1.20;;;13.80;1.00;;;;;;5136244;27;20401;-56
2023/10/01 07:19:27;;;;;;;3.00;1.20;;;13.90;1.00;;;;;;5136846;27;20431;-57
2023/10/01 07:21:58;;;;;;;2.80;1.00;;;14.10;1.00;;;;;;5138117;27;20425;-56
2023/10/01 07:24:27;;;;;;;4.18;1.20;;;14.20;1.00;;;;;;5137996;27;20422;-57
2023/10/01 07:27:03;;;;;;;2.73;0.93;;;14.20;1.00;;;;;;5138200;27;20423;-56
2023/10/01 07:29:33;;;;;;;2.13;1.10;;;14.30;1.00;;;;;;5137771;27;20422;-55
2023/10/01 07:32:01;;;;;;;2.58;1.10;;;14.40;1.00;;;;;;5136700;27;20419;-55
2023/10/01 07:34:31;;;;;;;2.80;1.10;;;14.60;1.00;;;;;;5136906;27;20417;-57
2023/10/01 07:37:00;;;;;;;3.70;1.20;;;14.60;1.00;;;;;;5136064;27;20422;-57
2023/10/01 07:39:34;;;;;;;3.90;1.60;;;14.60;1.00;;;;;;5136488;27;20429;-55
2023/10/01 07:42:04;;;;;;;3.30;1.38;;;14.70;1.00;;;;;;5136637;27;20422;-56
2023/10/01 07:44:32;;;;;;;3.92;1.70;;;14.70;1.00;;;;;;5137012;27;20419;-55
2023/10/01 07:47:00;;;;;;;4.65;1.10;;;14.90;1.00;;;;;;5136625;27;20722;-56
2023/10/01 07:49:46;;;;;;;3.20;1.50;;;15.00;1.00;;;;;;5137391;27;20467;-57
2023/10/01 07:52:17;;;;;;;3.20;1.70;;;15.10;1.00;;;;;;5137510;27;20501;-57
2023/10/01 07:54:47;;;;;;;4.18;1.40;;;15.10;1.00;;;;;;5136718;27;20831;-57
2023/10/01 07:57:16;;;;;;;3.72;1.25;;;15.10;1.00;;;;;;5137209;27;20426;-57
2023/10/01 07:59:46;;;;;;;3.55;1.27;;;15.10;1.00;;;;;;5137301;27;20765;-57
2023/10/01 08:02:19;;;;;;;3.10;1.30;;;15.10;1.00;;;;;;5137037;27;20413;-56
2023/10/01 08:05:00;;;;;;;2.85;1.20;;;15.20;1.00;;;;;;5136999;27;20461;-57
2023/10/01 08:07:36;;;;;;;2.30;1.30;;;15.30;1.00;;;;;;5136168;27;20446;-55
2023/10/01 08:10:16;;;;;;;3.97;1.17;;;15.40;1.00;;;;;;5136945;27;20419;-55
2023/10/01 08:15:32;;;;;;;2.70;1.10;;;15.60;1.00;;;;;;5136379;27;20499;-56
2023/10/01 08:18:19;;;;;;;4.38;1.40;;;15.70;1.00;;;;;;5137102;27;20837;-56
2023/10/01 08:21:00;;;;;;;4.63;1.20;;;15.80;1.00;;;;;;5137839;27;20487;-55
2023/10/01 08:23:30;;;;;;;2.40;1.20;;;15.90;99.90;;;;;;5136248;27;20422;-55
2023/10/01 08:25:58;;;;;;;3.50;1.20;;;16.00;99.90;;;;;;5136061;27;20418;-55
2023/10/01 08:28:29;;;;;;;2.95;1.20;;;16.10;99.90;;;;;;5136988;27;20411;-56
2023/10/01 08:31:20;;;;;;;2.58;1.10;;;16.20;99.90;;;;;;5137378;27;20418;-54
2023/10/01 08:33:51;;;;;;;3.42;1.20;;;16.40;99.90;;;;;;5131855;27;20479;-55
2023/10/01 08:36:24;;;;;;;3.58;1.10;;;16.40;99.90;;;;;;5135919;27;20426;-54
2023/10/01 08:41:50;;;;;;;3.17;1.40;;;16.50;1.00;;;;;;5122078;27;20780;-56
2023/10/01 08:44:30;;;;;;;1.98;1.10;;;16.60;1.00;;;;;;5135562;27;20520;-56
2023/10/01 08:47:21;;;;;;;2.92;1.10;;;16.60;20.60;;;;;;5135837;27;20459;-52
2023/10/01 08:49:51;;;;;;;3.10;1.30;;;16.70;1.00;;;;;;5136311;27;20848;-56
2023/10/01 08:52:25;;;;;;;2.78;1.30;;;16.80;1.00;;;;;;5134942;27;20726;-56
2023/10/01 08:54:55;;;;;;;2.58;1.20;;;16.90;1.00;;;;;;5134401;27;20884;-56
2023/10/01 08:57:36;;;;;;;2.92;1.00;;;17.00;1.00;;;;;;5124314;27;20419;-57
2023/10/01 09:00:16;;;;;;;3.53;1.15;;;17.10;1.00;;;;;;5114390;28;20424;-55
2023/10/01 09:02:43;;;;;;;2.60;1.30;;;17.20;99.90;;;;;;5115352;28;20431;-55
2023/10/01 09:05:11;;;;;;;3.70;1.30;;;17.30;99.90;;;;;;5114527;28;20696;-56
2023/10/01 09:07:42;;;;;;;3.00;1.20;;;17.40;1.00;;;;;;5115401;28;20473;-57
2023/10/01 09:10:17;;;;;;;3.33;1.40;;;17.50;1.00;;;;;;5114807;28;20419;-57
2023/10/01 09:12:46;;;;;;;3.75;1.20;;;17.60;1.00;;;;;;5115361;28;20431;-56
2023/10/01 09:15:27;;;;;;;4.75;1.20;;;17.60;1.00;;;;;;5115288;28;20424;-57
2023/10/01 09:17:57;;;;;;;4.78;1.30;;;17.80;99.90;;;;;;5114230;28;20713;-57
2023/10/01 09:20:42;;;;;;;2.10;1.00;;;17.90;25.70;;;;;;5115653;28;20434;-57
2023/10/01 09:23:10;;;;;;;2.20;1.00;;;18.00;1.00;;;;;;5115601;28;20420;-56
2023/10/01 09:25:41;;;;;;;3.20;1.20;;;18.10;99.90;;;;;;5114838;28;20416;-57
2023/10/01 09:28:29;;;;;;;4.07;1.08;;;18.10;99.90;;;;;;5113158;28;20736;-56
2023/10/01 09:31:02;;;;;;;2.90;1.10;;;18.20;99.90;;;;;;5115313;28;20835;-56
2023/10/01 09:33:32;;;;;;;3.90;1.10;;;18.30;99.90;;;;;;5114038;28;20871;-58
2023/10/01 09:36:00;;;;;;;3.80;1.30;;;18.40;1.00;;;;;;5113742;28;20452;-58
2023/10/01 09:38:31;;;;;;;3.40;1.40;;;18.50;1.00;;;;;;5114269;28;20428;-56
2023/10/01 09:41:00;;;;;;;2.40;1.20;;;18.60;1.00;;;;;;5114855;28;20412;-58
2023/10/01 09:43:29;;;;;;;3.30;1.30;;;18.70;99.90;;;;;;5114581;28;20404;-58
2023/10/01 09:46:00;;;;;;;2.75;1.10;;;18.90;99.90;;;;;;5114179;28;20428;-57
2023/10/01 09:48:33;;;;;;;3.13;1.10;;;19.00;2.50;;;;;;5110556;28;20458;-58
2023/10/01 09:51:13;;;;;;;3.00;1.10;;;19.20;1.00;;;;;;5108630;28;20435;-58
2023/10/01 09:53:55;;;;;;;3.10;1.30;;;19.40;1.00;;;;;;5112782;28;20436;-58
2023/10/01 09:56:29;;;;;;;2.88;1.10;;;19.60;99.90;;;;;;5122590;28;20434;-58
2023/10/01 09:58:58;;;;;;;3.80;1.20;;;19.80;99.90;;;;;;5126397;28;20502;-58
2023/10/01 10:01:27;;;;;;;2.93;1.13;;;20.10;67.50;;;;;;5115117;28;20411;-58
2023/10/01 10:03:59;;;;;;;2.17;1.10;;;20.30;1.00;;;;;;5114839;28;20815;-58
2023/10/01 10:06:27;;;;;;;1.85;0.93;;;20.60;1.00;;;;;;5113302;28;20462;-58
2023/10/01 10:09:04;;;;;;;2.35;1.00;;;20.80;1.00;;;;;;5114407;28;20851;-58
2023/10/01 10:11:36;;;;;;;2.88;1.10;;;21.10;1.00;;;;;;5113630;28;20420;-58
2023/10/01 10:14:24;;;;;;;3.38;1.10;;;21.20;99.90;;;;;;5114263;28;20453;-58
2023/10/01 10:16:58;;;;;;;3.35;1.10;;;21.20;99.90;;;;;;5113873;28;20538;-58
2023/10/01 10:19:26;;;;;;;2.63;1.00;;;21.40;99.90;;;;;;5104790;28;20778;-58
2023/10/01 10:22:12;;;;;;;2.33;1.00;;;21.60;99.90;;;;;;5112178;28;20689;-58
2023/10/01 10:24:45;;;;;;;3.90;1.00;;;21.60;99.90;;;;;;5112266;28;20432;-61
2023/10/01 10:27:35;;;;;;;3.50;1.10;;;21.80;99.90;;;;;;5108864;28;20514;-61
2023/10/01 10:30:15;;;;;;;2.33;0.90;;;22.00;99.90;;;;;;5102474;28;20449;-62
2023/10/01 10:33:14;;;;;;;1.90;1.00;;;22.10;99.90;;;;;;5108550;28;20444;-62
2023/10/01 10:35:48;;;;;;;2.20;1.00;;;22.20;99.90;;;;;;5107976;28;20569;-61
2023/10/01 10:38:51;;;;;;;5.80;1.00;;;22.10;99.90;;;;;;5113730;28;20478;-62
2023/10/01 10:41:17;;;;;;;2.90;1.10;;;22.00;99.90;;;;;;5117829;28;20408;-61
2023/10/01 10:44:08;;;;;;;3.10;1.00;;;22.00;99.90;;;;;;5118837;28;20444;-63
2023/10/01 10:47:02;;;;;;;2.45;1.00;;;22.10;99.90;;;;;;5116838;28;20460;-61
2023/10/01 10:49:50;;;;;;;3.53;1.10;;;22.20;99.90;;;;;;5097833;28;20494;-61
2023/10/01 10:52:31;;;;;;;3.50;1.20;;;22.60;92.80;;;;;;5107128;28;20778;-65
2023/10/01 10:55:15;;;;;;;2.77;1.00;;;22.90;44.80;;;;;;5118247;28;20520;-60
2023/10/01 10:57:48;;;;;;;3.00;1.20;;;23.10;17.90;;;;;;5118286;28;20428;-62
2023/10/01 11:00:28;;;;;;;2.40;1.00;;;23.30;6.10;;;;;;5116402;28;20489;-61
2023/10/01 11:02:57;;;;;;;4.30;1.10;;;23.20;1.00;;;;;;5117387;28;20432;-61
2023/10/01 11:05:29;;;;;;;2.33;1.20;;;23.30;1.00;;;;;;5115653;28;20526;-61
2023/10/01 11:07:58;;;;;;;2.45;1.00;;;23.30;1.00;;;;;;5115587;28;20420;-62
2023/10/01 11:10:28;;;;;;;3.80;1.10;;;23.40;1.00;;;;;;5107898;28;20476;-61
2023/10/01 11:12:55;;;;;;;2.55;1.10;;;23.50;1.00;;;;;;5117928;28;20715;-61
2023/10/01 11:15:38;;;;;;;1.85;1.00;;;23.40;1.00;;;;;;5107820;28;20425;-62
2023/10/01 11:18:09;;;;;;;2.28;1.05;;;23.60;1.00;;;;;;5113139;28;20839;-61
2023/10/01 11:20:45;;;;;;;2.40;1.10;;;23.70;1.00;;;;;;5117081;28;20522;-61
2023/10/01 11:23:12;;;;;;;2.40;1.02;;;23.30;1.00;;;;;;5112910;28;20428;-62
2023/10/01 11:25:47;;;;;;;4.70;1.40;;;23.40;1.00;;;;;;5113221;28;20691;-62
2023/10/01 11:28:15;;;;;;;3.55;1.10;;;23.50;1.00;;;;;;5114136;28;20431;-62
2023/10/01 11:30:43;;;;;;;2.38;0.90;;;23.60;1.00;;;;;;5115401;28;20426;-62
2023/10/01 11:33:16;;;;;;;2.70;1.10;;;23.70;1.00;;;;;;5114259;28;20412;-61
2023/10/01 11:36:06;;;;;;;3.05;1.05;;;23.90;1.00;;;;;;5114608;28;20581;-61
2023/10/01 11:38:35;;;;;;;2.72;1.00;;;23.90;1.00;;;;;;5114726;28;20424;-62
2023/10/01 11:41:09;;;;;;;2.95;1.00;;;23.90;1.00;;;;;;5110691;28;20903;-62
2023/10/01 11:43:41;;;;;;;2.58;1.10;;;24.00;1.00;;;;;;5093631;28;20417;-62
2023/10/01 11:46:20;;;;;;;2.42;1.20;;;23.90;1.00;;;;;;5094866;28;20622;-62
2023/10/01 11:48:57;;;;;;;3.40;1.10;;;24.00;1.00;;;;;;5113227;28;20933;-62
2023/10/01 11:51:32;;;;;;;3.93;1.17;;;24.00;1.00;;;;;;5111101;28;20432;-61
2023/10/01 11:54:09;;;;;;;3.80;0.90;;;23.80;1.00;;;;;;5115982;28;20419;-62
2023/10/01 11:56:41;;;;;;;2.30;1.10;;;23.70;1.00;;;;;;5109933;28;20653;-61
2023/10/01 11:59:10;;;;;;;3.05;1.00;;;23.70;1.00;;;;;;5094367;28;20421;-61
2023/10/01 12:01:48;;;;;;;1.92;1.10;;;23.70;1.00;;;;;;5094034;28;20437;-61
2023/10/01 12:04:24;;;;;;;1.60;0.90;;;23.70;1.00;;;;;;5096200;28;20413;-62
2023/10/01 12:06:53;;;;;;;3.00;1.10;;;23.70;1.00;;;;;;5094180;28;20685;-63
2023/10/01 12:09:21;;;;;;;2.80;1.08;;;23.60;1.00;;;;;;5095997;28;20483;-62
2023/10/01 12:14:55;;;;;;;2.73;0.90;;;23.60;1.00;;;;;;5131501;27;20352;-62
2023/10/01 12:17:27;;;;;;;2.95;1.00;;;23.70;1.00;;;;;;5132086;27;20507;-62
2023/10/01 12:19:55;;;;;;;3.50;1.40;;;23.70;1.00;;;;;;5131994;27;20780;-61
2023/10/01 12:22:25;;;;;;;3.03;1.10;;;23.80;1.00;;;;;;5131846;27;20506;-63
2023/10/01 12:24:59;;;;;;;3.20;1.00;;;23.90;1.00;;;;;;5131648;27;20504;-61
2023/10/01 12:27:45;;;;;;;3.17;1.20;;;24.00;1.00;;;;;;5130760;27;20470;-61
2023/10/01 12:30:30;;;;;;;3.60;1.10;;;23.90;1.00;;;;;;5130898;27;20412;-61
2023/10/01 12:33:00;;;;;;;2.70;1.00;;;24.00;1.00;;;;;;5130260;27;20427;-61
2023/10/01 12:35:30;;;;;;;2.72;1.08;;;24.00;1.00;;;;;;5132274;27;20839;-62
2023/10/01 12:40:55;;;;;;;2.63;1.00;;;24.10;1.00;;;;;;5109720;28;20412;-61
2023/10/01 12:43:38;;;;;;;3.05;1.10;;;24.20;1.00;;;;;;5126893;27;20446;-61
2023/10/01 12:46:09;;;;;;;3.13;1.20;;;24.10;1.00;;;;;;5131685;27;20430;-61
2023/10/01 12:48:36;;;;;;;2.03;1.00;;;24.20;1.00;;;;;;5131382;27;20418;-61
2023/10/01 12:51:07;;;;;;;5.97;3.70;;;24.20;1.00;;;;;;5132245;27;20419;-61
2023/10/01 12:53:47;;;;;;;3.30;1.30;;;24.20;1.00;;;;;;5131804;27;20438;-61
2023/10/01 12:56:15;;;;;;;4.03;1.65;;;24.10;1.00;;;;;;5131454;27;20427;-61
2023/10/01 12:58:53;;;;;;;2.80;1.10;;;24.10;1.00;;;;;;5131252;27;20423;-61
2023/10/01 13:01:31;;;;;;;3.08;1.00;;;24.00;1.00;;;;;;5129912;27;20423;-61
2023/10/01 13:04:16;;;;;;;2.28;0.93;;;24.00;1.00;;;;;;5131004;27;20469;-61
2023/10/01 13:06:43;;;;;;;2.30;0.90;;;24.00;1.00;;;;;;5130140;27;20835;-61
2023/10/01 13:09:35;;;;;;;2.33;0.90;;;24.00;1.00;;;;;;5130601;27;20434;-61
2023/10/01 13:11:59;;;;;;;1.88;0.90;;;23.90;1.00;;;;;;5130350;28;20743;-61
2023/10/01 13:14:30;;;;;;;2.85;0.90;;;23.90;1.00;;;;;;5129672;27;20427;-61
2023/10/01 13:17:00;;;;;;;2.40;1.08;;;23.90;1.00;;;;;;5128937;27;20565;-61
2023/10/01 13:19:33;;;;;;;4.57;1.67;;;23.90;1.00;;;;;;5129812;27;20510;-61
2023/10/01 13:22:04;;;;;;;2.95;1.00;;;23.90;1.00;;;;;;5130872;27;20846;-60
2023/10/01 13:24:32;;;;;;;6.05;2.70;;;23.70;1.00;;;;;;5125168;27;20506;-60
2023/10/01 13:27:10;;;;;;;6.45;2.90;;;23.70;1.00;;;;;;5115770;28;20719;-61
2023/10/01 13:29:38;;;;;;;2.72;1.15;;;23.70;1.00;;;;;;5117501;28;20420;-61
2023/10/01 13:32:15;;;;;;;3.10;1.10;;;23.70;1.00;;;;;;5117367;28;20459;-61
2023/10/01 13:34:48;;;;;;;4.20;1.10;;;23.70;1.00;;;;;;5117909;28;20463;-61
2023/10/01 13:40:29;;;;;;;3.10;1.07;;;23.70;1.00;;;;;;5153238;27;20882;-61
2023/10/01 14:10:25;;;;;;;3.20;1.00;;;23.70;1.00;;;;;;5151154;27;20385;-60
2023/10/01 14:13:00;;;;;;;3.00;1.07;;;23.80;1.00;;;;;;5151835;27;20428;-60
2023/10/01 14:15:29;;;;;;;2.10;1.00;;;23.80;1.00;;;;;;5150018;27;20432;-59
2023/10/01 14:17:58;;;;;;;2.92;1.05;;;23.80;1.00;;;;;;5150433;27;20421;-59
2023/10/01 14:23:30;;;;;;;3.80;1.30;;;23.70;1.00;;;;;;5127600;27;20413;-59
2023/10/01 14:26:10;;;;;;;2.72;0.85;;;23.70;1.00;;;;;;5145309;27;20462;-59